Aviation Digital Data Service (ADDS)

Output produced by METARs form (0107 UTC 06 December 2019)
found at http://www.aviationweather.gov/metar/data/
 
Forecast for: KSMF (SACRAMENTO/METRO, CA, US)
Text: KSMF 052322Z 0600/0624 VRB04KT P6SM BKN040
Forecast period: 0000 to 0900 UTC 06 December 2019
Forecast type: FROM: standard forecast or significant change
Winds: variable direction winds at 5 MPH (4 knots; 2.1 m/s)
Visibility: 6 or more miles 10+ km)
Ceiling: 4000 feet AGL
Clouds: broken clouds at 4000 feet AGL
Weather: no significant weather forecast for this period
Text: FM060900 VRB03KT 5SM BR OVC050
Forecast period: 0900 to 1700 UTC 06 December 2019
Forecast type: FROM: standard forecast or significant change
Winds: variable direction winds at 3 MPH (3 knots; 1.5 m/s)
Visibility: 5 miles (8 km)
Ceiling: 5000 feet AGL
Clouds: overcast cloud deck at 5000 feet AGL
Weather: BR  (mist)
Text: FM061700 15009KT P6SM OVC050
Forecast period: 1700 UTC 06 December 2019 to 0000 UTC 07 December 2019
Forecast type: FROM: standard forecast or significant change
Winds: from the SSE (150 degrees) at 10 MPH (9 knots; 4.6 m/s)
Visibility: 6 or more miles 10+ km)
Ceiling: 5000 feet AGL
Clouds: overcast cloud deck at 5000 feet AGL
Weather: no significant weather forecast for this period